sensor_id;sensor_type;location;lat;lon;timestamp;temperature;humidity
16513;DHT22;8369;48.030;11.598;2022-07-30T00:01:08;18.80;99.90
16513;DHT22;8369;48.030;11.598;2022-07-30T00:03:35;18.80;99.90
16513;DHT22;8369;48.030;11.598;2022-07-30T00:06:03;18.80;99.90
16513;DHT22;8369;48.030;11.598;2022-07-30T00:08:29;18.80;99.90
16513;DHT22;8369;48.030;11.598;2022-07-30T00:10:56;18.80;99.90
16513;DHT22;8369;48.030;11.598;2022-07-30T00:13:22;18.80;99.90
16513;DHT22;8369;48.030;11.598;2022-07-30T00:15:49;18.80;99.90
16513;DHT22;8369;48.030;11.598;2022-07-30T00:18:15;18.80;99.90
16513;DHT22;8369;48.030;11.598;2022-07-30T00:20:41;18.80;99.90
16513;DHT22;8369;48.030;11.598;2022-07-30T00:23:08;18.90;99.90
16513;DHT22;8369;48.030;11.598;2022-07-30T00:25:34;18.80;99.90
16513;DHT22;8369;48.030;11.598;2022-07-30T00:28:01;18.80;99.90
16513;DHT22;8369;48.030;11.598;2022-07-30T00:30:27;18.90;99.90
16513;DHT22;8369;48.030;11.598;2022-07-30T00:32:53;18.80;99.90
16513;DHT22;8369;48.030;11.598;2022-07-30T00:35:19;18.80;99.90
16513;DHT22;8369;48.030;11.598;2022-07-30T00:37:45;18.80;99.90
16513;DHT22;8369;48.030;11.598;2022-07-30T00:40:11;18.80;99.90
16513;DHT22;8369;48.030;11.598;2022-07-30T00:42:44;18.80;99.90
16513;DHT22;8369;48.030;11.598;2022-07-30T00:45:12;18.80;99.90
16513;DHT22;8369;48.030;11.598;2022-07-30T00:47:38;18.80;99.90
16513;DHT22;8369;48.030;11.598;2022-07-30T00:50:06;18.80;99.90
16513;DHT22;8369;48.030;11.598;2022-07-30T00:52:34;18.80;99.90
16513;DHT22;8369;48.030;11.598;2022-07-30T00:55:01;18.80;99.90
16513;DHT22;8369;48.030;11.598;2022-07-30T00:57:27;18.70;99.90
16513;DHT22;8369;48.030;11.598;2022-07-30T00:59:54;18.80;99.90
16513;DHT22;8369;48.030;11.598;2022-07-30T01:02:20;18.70;99.90
16513;DHT22;8369;48.030;11.598;2022-07-30T01:04:47;18.70;99.90
16513;DHT22;8369;48.030;11.598;2022-07-30T01:07:13;18.70;99.90
16513;DHT22;8369;48.030;11.598;2022-07-30T01:09:39;18.70;99.90
16513;DHT22;8369;48.030;11.598;2022-07-30T01:12:06;18.70;99.90
16513;DHT22;8369;48.030;11.598;2022-07-30T01:14:36;18.70;99.90
16513;DHT22;8369;48.030;11.598;2022-07-30T01:17:03;18.70;99.90
16513;DHT22;8369;48.030;11.598;2022-07-30T01:19:34;18.70;99.90
16513;DHT22;8369;48.030;11.598;2022-07-30T01:22:36;18.70;99.90
16513;DHT22;8369;48.030;11.598;2022-07-30T01:28:11;18.70;99.90
16513;DHT22;8369;48.030;11.598;2022-07-30T01:30:42;18.70;99.90
16513;DHT22;8369;48.030;11.598;2022-07-30T01:33:13;18.70;99.90
16513;DHT22;8369;48.030;11.598;2022-07-30T01:35:41;18.70;99.90
16513;DHT22;8369;48.030;11.598;2022-07-30T01:38:10;18.70;99.90
16513;DHT22;8369;48.030;11.598;2022-07-30T01:40:38;18.70;99.90
16513;DHT22;8369;48.030;11.598;2022-07-30T01:43:07;18.70;99.90
16513;DHT22;8369;48.030;11.598;2022-07-30T01:45:34;18.70;99.90
16513;DHT22;8369;48.030;11.598;2022-07-30T01:48:02;18.80;99.90
16513;DHT22;8369;48.030;11.598;2022-07-30T01:50:31;18.80;99.90
16513;DHT22;8369;48.030;11.598;2022-07-30T01:52:58;18.80;99.90
16513;DHT22;8369;48.030;11.598;2022-07-30T01:55:30;18.80;99.90
16513;DHT22;8369;48.030;11.598;2022-07-30T01:57:58;18.80;99.90
16513;DHT22;8369;48.030;11.598;2022-07-30T02:00:27;18.80;99.90
16513;DHT22;8369;48.030;11.598;2022-07-30T02:02:56;18.80;99.90
16513;DHT22;8369;48.030;11.598;2022-07-30T02:05:22;18.80;99.90
16513;DHT22;8369;48.030;11.598;2022-07-30T02:07:57;18.80;99.90
16513;DHT22;8369;48.030;11.598;2022-07-30T02:10:40;18.80;99.90
16513;DHT22;8369;48.030;11.598;2022-07-30T02:13:08;18.90;99.90
16513;DHT22;8369;48.030;11.598;2022-07-30T02:15:43;18.90;99.90
16513;DHT22;8369;48.030;11.598;2022-07-30T02:18:24;18.90;99.90
16513;DHT22;8369;48.030;11.598;2022-07-30T02:20:59;18.90;99.90
16513;DHT22;8369;48.030;11.598;2022-07-30T02:23:27;18.90;99.90
16513;DHT22;8369;48.030;11.598;2022-07-30T02:25:56;18.90;99.90
16513;DHT22;8369;48.030;11.598;2022-07-30T02:28:26;18.90;99.90
16513;DHT22;8369;48.030;11.598;2022-07-30T02:30:56;18.90;99.90
16513;DHT22;8369;48.030;11.598;2022-07-30T02:33:29;18.90;99.90
16513;DHT22;8369;48.030;11.598;2022-07-30T02:35:58;18.90;99.90
16513;DHT22;8369;48.030;11.598;2022-07-30T02:38:26;18.90;99.90
16513;DHT22;8369;48.030;11.598;2022-07-30T02:40:58;18.90;99.90
16513;DHT22;8369;48.030;11.598;2022-07-30T02:43:25;18.90;99.90
16513;DHT22;8369;48.030;11.598;2022-07-30T02:45:52;18.90;99.90
16513;DHT22;8369;48.030;11.598;2022-07-30T02:48:22;18.90;99.90
16513;DHT22;8369;48.030;11.598;2022-07-30T02:50:52;18.90;99.90
16513;DHT22;8369;48.030;11.598;2022-07-30T02:53:20;18.90;99.90
16513;DHT22;8369;48.030;11.598;2022-07-30T02:55:48;18.90;99.90
16513;DHT22;8369;48.030;11.598;2022-07-30T02:58:20;18.90;99.90
16513;DHT22;8369;48.030;11.598;2022-07-30T03:00:49;18.90;99.90
16513;DHT22;8369;48.030;11.598;2022-07-30T03:03:17;18.90;99.90
16513;DHT22;8369;48.030;11.598;2022-07-30T03:05:43;18.90;99.90
16513;DHT22;8369;48.030;11.598;2022-07-30T03:08:11;18.90;99.90
16513;DHT22;8369;48.030;11.598;2022-07-30T03:10:43;18.90;99.90
16513;DHT22;8369;48.030;11.598;2022-07-30T03:13:11;18.90;99.90
16513;DHT22;8369;48.030;11.598;2022-07-30T03:15:42;18.90;99.90
16513;DHT22;8369;48.030;11.598;2022-07-30T03:18:11;18.80;99.90
16513;DHT22;8369;48.030;11.598;2022-07-30T03:20:38;18.80;99.90
16513;DHT22;8369;48.030;11.598;2022-07-30T03:23:06;18.80;99.90
16513;DHT22;8369;48.030;11.598;2022-07-30T03:25:33;18.90;99.90
16513;DHT22;8369;48.030;11.598;2022-07-30T03:28:02;18.90;99.90
16513;DHT22;8369;48.030;11.598;2022-07-30T03:30:34;18.90;99.90
16513;DHT22;8369;48.030;11.598;2022-07-30T03:33:00;18.90;99.90
16513;DHT22;8369;48.030;11.598;2022-07-30T03:35:33;18.90;99.90
16513;DHT22;8369;48.030;11.598;2022-07-30T03:38:03;18.80;99.90
16513;DHT22;8369;48.030;11.598;2022-07-30T03:40:30;18.80;99.90
16513;DHT22;8369;48.030;11.598;2022-07-30T03:42:56;18.80;99.90
16513;DHT22;8369;48.030;11.598;2022-07-30T03:45:24;18.80;99.90
16513;DHT22;8369;48.030;11.598;2022-07-30T03:47:54;18.80;99.90
16513;DHT22;8369;48.030;11.598;2022-07-30T03:50:24;18.80;99.90
16513;DHT22;8369;48.030;11.598;2022-07-30T03:52:55;18.80;99.90
16513;DHT22;8369;48.030;11.598;2022-07-30T03:55:27;18.80;99.90
16513;DHT22;8369;48.030;11.598;2022-07-30T03:57:53;18.80;99.90
16513;DHT22;8369;48.030;11.598;2022-07-30T04:00:20;18.80;99.90
16513;DHT22;8369;48.030;11.598;2022-07-30T04:02:46;18.80;99.90
16513;DHT22;8369;48.030;11.598;2022-07-30T04:05:14;18.80;99.90
16513;DHT22;8369;48.030;11.598;2022-07-30T04:07:43;18.80;99.90
16513;DHT22;8369;48.030;11.598;2022-07-30T04:10:12;18.80;99.90
16513;DHT22;8369;48.030;11.598;2022-07-30T04:12:45;18.80;99.90
16513;DHT22;8369;48.030;11.598;2022-07-30T04:15:11;18.80;99.90
16513;DHT22;8369;48.030;11.598;2022-07-30T04:17:42;18.80;99.90
16513;DHT22;8369;48.030;11.598;2022-07-30T04:20:12;18.70;99.90
16513;DHT22;8369;48.030;11.598;2022-07-30T04:22:39;18.70;99.90
16513;DHT22;8369;48.030;11.598;2022-07-30T04:25:09;18.70;99.90
16513;DHT22;8369;48.030;11.598;2022-07-30T04:27:36;18.70;99.90
16513;DHT22;8369;48.030;11.598;2022-07-30T04:30:05;18.70;99.90
16513;DHT22;8369;48.030;11.598;2022-07-30T04:32:31;18.70;99.90
16513;DHT22;8369;48.030;11.598;2022-07-30T04:35:00;18.70;99.90
16513;DHT22;8369;48.030;11.598;2022-07-30T04:37:29;18.70;99.90
16513;DHT22;8369;48.030;11.598;2022-07-30T04:39:55;18.70;99.90
16513;DHT22;8369;48.030;11.598;2022-07-30T04:42:27;18.80;99.90
16513;DHT22;8369;48.030;11.598;2022-07-30T04:44:53;18.80;99.90
16513;DHT22;8369;48.030;11.598;2022-07-30T04:47:21;18.80;99.90
16513;DHT22;8369;48.030;11.598;2022-07-30T04:49:48;18.80;99.90
16513;DHT22;8369;48.030;11.598;2022-07-30T04:52:17;18.80;99.90
16513;DHT22;8369;48.030;11.598;2022-07-30T04:54:49;18.80;99.90
16513;DHT22;8369;48.030;11.598;2022-07-30T04:57:17;18.80;99.90
16513;DHT22;8369;48.030;11.598;2022-07-30T04:59:44;18.90;99.90
16513;DHT22;8369;48.030;11.598;2022-07-30T05:02:18;18.90;99.90
16513;DHT22;8369;48.030;11.598;2022-07-30T05:04:48;18.90;99.90
16513;DHT22;8369;48.030;11.598;2022-07-30T05:07:15;18.90;99.90
16513;DHT22;8369;48.030;11.598;2022-07-30T05:10:03;18.90;99.90
16513;DHT22;8369;48.030;11.598;2022-07-30T05:12:36;19.00;99.90
16513;DHT22;8369;48.030;11.598;2022-07-30T05:15:06;19.00;99.90
16513;DHT22;8369;48.030;11.598;2022-07-30T05:17:33;19.10;99.90
16513;DHT22;8369;48.030;11.598;2022-07-30T05:20:00;19.10;99.90
16513;DHT22;8369;48.030;11.598;2022-07-30T05:22:26;19.20;99.90
16513;DHT22;8369;48.030;11.598;2022-07-30T05:24:55;19.30;99.90
16513;DHT22;8369;48.030;11.598;2022-07-30T05:27:22;19.40;99.90
16513;DHT22;8369;48.030;11.598;2022-07-30T05:29:50;19.40;99.90
16513;DHT22;8369;48.030;11.598;2022-07-30T05:32:17;19.40;99.90
16513;DHT22;8369;48.030;11.598;2022-07-30T05:34:43;19.40;99.90
16513;DHT22;8369;48.030;11.598;2022-07-30T05:37:09;19.40;99.90
16513;DHT22;8369;48.030;11.598;2022-07-30T05:39:35;19.50;99.90
16513;DHT22;8369;48.030;11.598;2022-07-30T05:42:01;19.50;99.90
16513;DHT22;8369;48.030;11.598;2022-07-30T05:44:27;19.50;99.90
16513;DHT22;8369;48.030;11.598;2022-07-30T05:46:53;19.50;99.90
16513;DHT22;8369;48.030;11.598;2022-07-30T05:49:22;19.50;99.90
16513;DHT22;8369;48.030;11.598;2022-07-30T05:51:49;19.40;99.90
16513;DHT22;8369;48.030;11.598;2022-07-30T05:54:20;19.40;99.90
16513;DHT22;8369;48.030;11.598;2022-07-30T05:56:47;19.40;99.90
16513;DHT22;8369;48.030;11.598;2022-07-30T05:59:13;19.40;99.90
16513;DHT22;8369;48.030;11.598;2022-07-30T06:01:39;19.40;99.90
16513;DHT22;8369;48.030;11.598;2022-07-30T06:04:05;19.30;99.90
16513;DHT22;8369;48.030;11.598;2022-07-30T06:06:31;19.30;99.90
16513;DHT22;8369;48.030;11.598;2022-07-30T06:08:57;19.30;99.90
16513;DHT22;8369;48.030;11.598;2022-07-30T06:11:24;19.30;99.90
16513;DHT22;8369;48.030;11.598;2022-07-30T06:13:50;19.30;99.90
16513;DHT22;8369;48.030;11.598;2022-07-30T06:16:17;19.40;99.90
16513;DHT22;8369;48.030;11.598;2022-07-30T06:18:46;19.40;99.90
16513;DHT22;8369;48.030;11.598;2022-07-30T06:21:12;19.40;99.90
16513;DHT22;8369;48.030;11.598;2022-07-30T06:23:39;19.30;99.90
16513;DHT22;8369;48.030;11.598;2022-07-30T06:26:04;19.30;99.90
16513;DHT22;8369;48.030;11.598;2022-07-30T06:28:33;19.30;99.90
16513;DHT22;8369;48.030;11.598;2022-07-30T06:30:59;19.30;99.90
16513;DHT22;8369;48.030;11.598;2022-07-30T06:33:25;19.30;99.90
16513;DHT22;8369;48.030;11.598;2022-07-30T06:35:54;19.30;99.90
16513;DHT22;8369;48.030;11.598;2022-07-30T06:38:20;19.40;99.90
16513;DHT22;8369;48.030;11.598;2022-07-30T06:40:46;19.40;99.90
16513;DHT22;8369;48.030;11.598;2022-07-30T06:43:12;19.50;99.90
16513;DHT22;8369;48.030;11.598;2022-07-30T06:45:38;19.60;99.90
16513;DHT22;8369;48.030;11.598;2022-07-30T06:48:05;19.70;99.90
16513;DHT22;8369;48.030;11.598;2022-07-30T06:50:31;19.70;99.90
16513;DHT22;8369;48.030;11.598;2022-07-30T06:52:57;19.80;99.90
16513;DHT22;8369;48.030;11.598;2022-07-30T06:55:23;19.80;99.90
16513;DHT22;8369;48.030;11.598;2022-07-30T07:00:57;19.80;99.90
16513;DHT22;8369;48.030;11.598;2022-07-30T07:03:23;19.80;99.90
16513;DHT22;8369;48.030;11.598;2022-07-30T07:05:50;19.80;99.90
16513;DHT22;8369;48.030;11.598;2022-07-30T07:08:17;19.70;99.90
16513;DHT22;8369;48.030;11.598;2022-07-30T07:10:46;19.70;99.90
16513;DHT22;8369;48.030;11.598;2022-07-30T07:13:13;19.70;99.90
16513;DHT22;8369;48.030;11.598;2022-07-30T07:15:40;19.70;99.90
16513;DHT22;8369;48.030;11.598;2022-07-30T07:18:09;19.70;99.90
16513;DHT22;8369;48.030;11.598;2022-07-30T07:20:37;19.80;99.90
16513;DHT22;8369;48.030;11.598;2022-07-30T07:23:03;19.90;99.90
16513;DHT22;8369;48.030;11.598;2022-07-30T07:25:29;19.90;99.90
16513;DHT22;8369;48.030;11.598;2022-07-30T07:27:55;20.00;99.90
16513;DHT22;8369;48.030;11.598;2022-07-30T07:30:24;20.10;99.90
16513;DHT22;8369;48.030;11.598;2022-07-30T07:32:50;20.20;99.90
16513;DHT22;8369;48.030;11.598;2022-07-30T07:35:16;20.40;99.90
16513;DHT22;8369;48.030;11.598;2022-07-30T07:37:42;20.50;99.90
16513;DHT22;8369;48.030;11.598;2022-07-30T07:40:08;20.60;99.90
16513;DHT22;8369;48.030;11.598;2022-07-30T07:42:34;20.70;99.90
16513;DHT22;8369;48.030;11.598;2022-07-30T07:45:00;20.90;99.90
16513;DHT22;8369;48.030;11.598;2022-07-30T07:47:27;21.00;99.90
16513;DHT22;8369;48.030;11.598;2022-07-30T07:49:54;21.10;99.90
16513;DHT22;8369;48.030;11.598;2022-07-30T07:52:20;21.30;99.70
16513;DHT22;8369;48.030;11.598;2022-07-30T07:54:46;21.40;98.50
16513;DHT22;8369;48.030;11.598;2022-07-30T07:57:12;21.40;98.90
16513;DHT22;8369;48.030;11.598;2022-07-30T07:59:38;21.50;99.30
16513;DHT22;8369;48.030;11.598;2022-07-30T08:02:07;21.60;98.70
16513;DHT22;8369;48.030;11.598;2022-07-30T08:04:34;21.60;96.50
16513;DHT22;8369;48.030;11.598;2022-07-30T08:07:00;21.60;97.20
16513;DHT22;8369;48.030;11.598;2022-07-30T08:09:26;21.70;97.30
16513;DHT22;8369;48.030;11.598;2022-07-30T08:11:52;21.80;97.70
16513;DHT22;8369;48.030;11.598;2022-07-30T08:14:18;21.90;97.60
16513;DHT22;8369;48.030;11.598;2022-07-30T08:16:44;21.90;97.60
16513;DHT22;8369;48.030;11.598;2022-07-30T08:19:10;22.10;95.20
16513;DHT22;8369;48.030;11.598;2022-07-30T08:21:36;22.10;94.00
16513;DHT22;8369;48.030;11.598;2022-07-30T08:24:02;22.10;93.80
16513;DHT22;8369;48.030;11.598;2022-07-30T08:26:30;22.10;93.90
16513;DHT22;8369;48.030;11.598;2022-07-30T08:28:55;22.10;92.70
16513;DHT22;8369;48.030;11.598;2022-07-30T08:31:21;22.10;93.90
16513;DHT22;8369;48.030;11.598;2022-07-30T08:33:47;22.20;94.70
16513;DHT22;8369;48.030;11.598;2022-07-30T08:36:13;22.30;93.50
16513;DHT22;8369;48.030;11.598;2022-07-30T08:38:39;22.30;93.20
16513;DHT22;8369;48.030;11.598;2022-07-30T08:41:12;22.30;92.40
16513;DHT22;8369;48.030;11.598;2022-07-30T08:43:38;22.20;93.40
16513;DHT22;8369;48.030;11.598;2022-07-30T08:46:08;22.10;93.10
16513;DHT22;8369;48.030;11.598;2022-07-30T08:48:36;22.20;93.60
16513;DHT22;8369;48.030;11.598;2022-07-30T08:51:02;22.30;93.90
16513;DHT22;8369;48.030;11.598;2022-07-30T08:53:36;22.40;92.60
16513;DHT22;8369;48.030;11.598;2022-07-30T08:56:03;22.50;90.80
16513;DHT22;8369;48.030;11.598;2022-07-30T08:58:31;22.50;90.70
16513;DHT22;8369;48.030;11.598;2022-07-30T09:01:04;22.50;90.90
16513;DHT22;8369;48.030;11.598;2022-07-30T09:03:30;22.60;90.20
16513;DHT22;8369;48.030;11.598;2022-07-30T09:05:57;22.60;90.90
16513;DHT22;8369;48.030;11.598;2022-07-30T09:08:23;22.70;90.80
16513;DHT22;8369;48.030;11.598;2022-07-30T09:10:49;22.60;90.20
16513;DHT22;8369;48.030;11.598;2022-07-30T09:13:29;22.70;90.30
16513;DHT22;8369;48.030;11.598;2022-07-30T09:15:56;22.80;90.60
16513;DHT22;8369;48.030;11.598;2022-07-30T09:18:32;22.70;89.20
16513;DHT22;8369;48.030;11.598;2022-07-30T09:21:00;22.80;89.50
16513;DHT22;8369;48.030;11.598;2022-07-30T09:23:27;22.80;88.60
16513;DHT22;8369;48.030;11.598;2022-07-30T09:25:53;22.90;87.90
16513;DHT22;8369;48.030;11.598;2022-07-30T09:28:28;23.10;88.00
16513;DHT22;8369;48.030;11.598;2022-07-30T09:30:56;23.30;86.90
16513;DHT22;8369;48.030;11.598;2022-07-30T09:33:33;23.40;84.50
16513;DHT22;8369;48.030;11.598;2022-07-30T09:36:00;23.50;83.30
16513;DHT22;8369;48.030;11.598;2022-07-30T09:38:26;23.60;83.30
16513;DHT22;8369;48.030;11.598;2022-07-30T09:40:56;23.60;83.70
16513;DHT22;8369;48.030;11.598;2022-07-30T09:43:22;23.70;79.40
16513;DHT22;8369;48.030;11.598;2022-07-30T09:45:54;23.70;80.50
16513;DHT22;8369;48.030;11.598;2022-07-30T09:48:24;23.70;81.80
16513;DHT22;8369;48.030;11.598;2022-07-30T09:50:52;23.70;81.40
16513;DHT22;8369;48.030;11.598;2022-07-30T09:53:19;23.70;79.90
16513;DHT22;8369;48.030;11.598;2022-07-30T09:55:47;23.70;81.10
16513;DHT22;8369;48.030;11.598;2022-07-30T09:58:13;23.90;79.30
16513;DHT22;8369;48.030;11.598;2022-07-30T10:00:40;24.10;79.30
16513;DHT22;8369;48.030;11.598;2022-07-30T10:03:17;24.10;77.60
16513;DHT22;8369;48.030;11.598;2022-07-30T10:05:58;24.10;79.40
16513;DHT22;8369;48.030;11.598;2022-07-30T10:08:50;24.00;77.90
16513;DHT22;8369;48.030;11.598;2022-07-30T10:11:21;24.10;77.30
16513;DHT22;8369;48.030;11.598;2022-07-30T10:13:55;24.10;78.10
16513;DHT22;8369;48.030;11.598;2022-07-30T10:16:25;24.10;76.50
16513;DHT22;8369;48.030;11.598;2022-07-30T10:18:52;24.00;77.30
16513;DHT22;8369;48.030;11.598;2022-07-30T10:21:24;24.00;77.00
16513;DHT22;8369;48.030;11.598;2022-07-30T10:23:52;23.90;77.90
16513;DHT22;8369;48.030;11.598;2022-07-30T10:26:19;24.00;77.00
16513;DHT22;8369;48.030;11.598;2022-07-30T10:28:46;24.00;77.00
16513;DHT22;8369;48.030;11.598;2022-07-30T10:31:14;24.10;75.90
16513;DHT22;8369;48.030;11.598;2022-07-30T10:33:41;24.10;74.10
16513;DHT22;8369;48.030;11.598;2022-07-30T10:36:10;24.00;71.80
16513;DHT22;8369;48.030;11.598;2022-07-30T10:38:38;24.10;72.70
16513;DHT22;8369;48.030;11.598;2022-07-30T10:44:08;24.10;72.90
16513;DHT22;8369;48.030;11.598;2022-07-30T10:49:18;24.10;72.40
16513;DHT22;8369;48.030;11.598;2022-07-30T10:51:49;24.10;73.00
16513;DHT22;8369;48.030;11.598;2022-07-30T10:57:18;24.10;73.60
16513;DHT22;8369;48.030;11.598;2022-07-30T11:02:24;24.20;71.10
16513;DHT22;8369;48.030;11.598;2022-07-30T11:07:44;24.30;68.90
16513;DHT22;8369;48.030;11.598;2022-07-30T11:10:33;24.30;68.60
16513;DHT22;8369;48.030;11.598;2022-07-30T11:13:03;24.30;70.70
16513;DHT22;8369;48.030;11.598;2022-07-30T11:15:59;24.50;69.10
16513;DHT22;8369;48.030;11.598;2022-07-30T11:18:27;24.50;66.00
16513;DHT22;8369;48.030;11.598;2022-07-30T11:21:12;24.40;66.90
16513;DHT22;8369;48.030;11.598;2022-07-30T11:23:41;24.30;68.60
16513;DHT22;8369;48.030;11.598;2022-07-30T11:26:08;24.30;68.80
16513;DHT22;8369;48.030;11.598;2022-07-30T11:28:41;24.40;68.30
16513;DHT22;8369;48.030;11.598;2022-07-30T11:42:25;24.40;67.70
16513;DHT22;8369;48.030;11.598;2022-07-30T11:44:52;24.50;66.60
16513;DHT22;8369;48.030;11.598;2022-07-30T11:47:18;24.50;65.40
16513;DHT22;8369;48.030;11.598;2022-07-30T11:49:47;24.50;66.20
16513;DHT22;8369;48.030;11.598;2022-07-30T11:52:21;24.50;66.80
16513;DHT22;8369;48.030;11.598;2022-07-30T11:54:51;24.40;66.90
16513;DHT22;8369;48.030;11.598;2022-07-30T11:57:17;24.20;67.40
16513;DHT22;8369;48.030;11.598;2022-07-30T11:59:54;24.10;68.90
16513;DHT22;8369;48.030;11.598;2022-07-30T12:02:26;24.10;68.30
16513;DHT22;8369;48.030;11.598;2022-07-30T12:04:52;24.00;69.20
16513;DHT22;8369;48.030;11.598;2022-07-30T12:07:22;23.90;70.30
16513;DHT22;8369;48.030;11.598;2022-07-30T12:09:50;23.80;72.40
16513;DHT22;8369;48.030;11.598;2022-07-30T12:12:21;23.70;73.30
16513;DHT22;8369;48.030;11.598;2022-07-30T12:14:49;23.60;74.10
16513;DHT22;8369;48.030;11.598;2022-07-30T12:17:15;23.50;74.90
16513;DHT22;8369;48.030;11.598;2022-07-30T12:19:44;23.50;75.60
16513;DHT22;8369;48.030;11.598;2022-07-30T12:22:11;23.60;75.90
16513;DHT22;8369;48.030;11.598;2022-07-30T12:24:37;23.60;75.90
16513;DHT22;8369;48.030;11.598;2022-07-30T12:27:06;23.50;76.70
16513;DHT22;8369;48.030;11.598;2022-07-30T12:29:35;23.40;77.00
16513;DHT22;8369;48.030;11.598;2022-07-30T12:32:02;23.40;76.80
16513;DHT22;8369;48.030;11.598;2022-07-30T12:34:29;23.30;77.60
16513;DHT22;8369;48.030;11.598;2022-07-30T12:36:54;23.20;79.10
16513;DHT22;8369;48.030;11.598;2022-07-30T12:39:31;23.20;78.20
16513;DHT22;8369;48.030;11.598;2022-07-30T12:41:57;23.10;78.80
16513;DHT22;8369;48.030;11.598;2022-07-30T12:44:35;23.30;78.10
16513;DHT22;8369;48.030;11.598;2022-07-30T12:47:04;23.40;74.30
16513;DHT22;8369;48.030;11.598;2022-07-30T12:49:32;23.60;74.90
16513;DHT22;8369;48.030;11.598;2022-07-30T12:51:58;23.70;74.70
16513;DHT22;8369;48.030;11.598;2022-07-30T12:54:24;23.90;72.30
16513;DHT22;8369;48.030;11.598;2022-07-30T12:56:59;24.20;72.00
16513;DHT22;8369;48.030;11.598;2022-07-30T12:59:26;24.40;70.00
16513;DHT22;8369;48.030;11.598;2022-07-30T13:01:52;24.50;69.70
16513;DHT22;8369;48.030;11.598;2022-07-30T13:04:18;24.70;67.40
16513;DHT22;8369;48.030;11.598;2022-07-30T13:07:11;24.70;67.70
16513;DHT22;8369;48.030;11.598;2022-07-30T13:09:38;24.50;67.40
16513;DHT22;8369;48.030;11.598;2022-07-30T13:12:04;24.40;68.20
16513;DHT22;8369;48.030;11.598;2022-07-30T13:14:31;24.30;69.80
16513;DHT22;8369;48.030;11.598;2022-07-30T13:16:57;24.30;70.00
16513;DHT22;8369;48.030;11.598;2022-07-30T13:19:24;24.40;68.20
16513;DHT22;8369;48.030;11.598;2022-07-30T13:21:50;24.40;67.20
16513;DHT22;8369;48.030;11.598;2022-07-30T13:24:17;24.40;66.80
16513;DHT22;8369;48.030;11.598;2022-07-30T13:26:44;24.50;65.30
16513;DHT22;8369;48.030;11.598;2022-07-30T13:29:11;24.40;64.40
16513;DHT22;8369;48.030;11.598;2022-07-30T13:31:41;24.40;65.40
16513;DHT22;8369;48.030;11.598;2022-07-30T13:34:07;24.30;64.20
16513;DHT22;8369;48.030;11.598;2022-07-30T13:36:33;24.30;64.50
16513;DHT22;8369;48.030;11.598;2022-07-30T13:38:59;24.40;65.40
16513;DHT22;8369;48.030;11.598;2022-07-30T13:41:25;24.60;64.20
16513;DHT22;8369;48.030;11.598;2022-07-30T13:43:51;24.70;63.00
16513;DHT22;8369;48.030;11.598;2022-07-30T13:46:17;24.80;62.50
16513;DHT22;8369;48.030;11.598;2022-07-30T13:48:44;25.00;61.20
16513;DHT22;8369;48.030;11.598;2022-07-30T13:51:10;25.10;61.60
16513;DHT22;8369;48.030;11.598;2022-07-30T13:53:36;25.10;61.60
16513;DHT22;8369;48.030;11.598;2022-07-30T13:56:02;25.20;61.60
16513;DHT22;8369;48.030;11.598;2022-07-30T13:58:28;25.30;62.20
16513;DHT22;8369;48.030;11.598;2022-07-30T14:00:54;25.30;61.90
16513;DHT22;8369;48.030;11.598;2022-07-30T14:03:28;25.30;61.60
16513;DHT22;8369;48.030;11.598;2022-07-30T14:05:54;25.40;61.20
16513;DHT22;8369;48.030;11.598;2022-07-30T14:08:21;25.40;61.00
16513;DHT22;8369;48.030;11.598;2022-07-30T14:10:50;25.50;60.50
16513;DHT22;8369;48.030;11.598;2022-07-30T14:13:16;25.40;59.70
16513;DHT22;8369;48.030;11.598;2022-07-30T14:15:43;25.30;61.00
16513;DHT22;8369;48.030;11.598;2022-07-30T14:18:09;25.30;61.90
16513;DHT22;8369;48.030;11.598;2022-07-30T14:20:35;25.40;61.20
16513;DHT22;8369;48.030;11.598;2022-07-30T14:23:01;25.40;60.50
16513;DHT22;8369;48.030;11.598;2022-07-30T14:25:27;25.50;59.10
16513;DHT22;8369;48.030;11.598;2022-07-30T14:27:53;25.60;61.90
16513;DHT22;8369;48.030;11.598;2022-07-30T14:30:22;25.50;61.30
16513;DHT22;8369;48.030;11.598;2022-07-30T14:32:49;25.40;61.80
16513;DHT22;8369;48.030;11.598;2022-07-30T14:35:15;25.30;60.70
16513;DHT22;8369;48.030;11.598;2022-07-30T14:37:42;25.20;61.30
16513;DHT22;8369;48.030;11.598;2022-07-30T14:40:11;25.10;61.30
16513;DHT22;8369;48.030;11.598;2022-07-30T14:42:38;24.90;60.10
16513;DHT22;8369;48.030;11.598;2022-07-30T14:48:30;24.90;61.30
16513;DHT22;8369;48.030;11.598;2022-07-30T14:50:56;24.90;61.60
16513;DHT22;8369;48.030;11.598;2022-07-30T14:53:22;24.90;61.20
16513;DHT22;8369;48.030;11.598;2022-07-30T14:55:53;24.90;64.20
16513;DHT22;8369;48.030;11.598;2022-07-30T14:58:20;25.00;62.20
16513;DHT22;8369;48.030;11.598;2022-07-30T15:00:46;25.10;62.40
16513;DHT22;8369;48.030;11.598;2022-07-30T15:03:16;25.20;62.10
16513;DHT22;8369;48.030;11.598;2022-07-30T15:05:42;25.30;61.60
16513;DHT22;8369;48.030;11.598;2022-07-30T15:08:08;25.30;61.80
16513;DHT22;8369;48.030;11.598;2022-07-30T15:10:34;25.30;60.20
16513;DHT22;8369;48.030;11.598;2022-07-30T15:13:00;25.30;61.50
16513;DHT22;8369;48.030;11.598;2022-07-30T15:15:30;25.20;60.50
16513;DHT22;8369;48.030;11.598;2022-07-30T15:17:58;25.10;61.30
16513;DHT22;8369;48.030;11.598;2022-07-30T15:20:54;25.10;62.40
16513;DHT22;8369;48.030;11.598;2022-07-30T15:23:20;25.20;62.80
16513;DHT22;8369;48.030;11.598;2022-07-30T15:25:48;25.30;62.10
16513;DHT22;8369;48.030;11.598;2022-07-30T15:28:15;25.40;60.70
16513;DHT22;8369;48.030;11.598;2022-07-30T15:30:41;25.40;60.50
16513;DHT22;8369;48.030;11.598;2022-07-30T15:33:10;25.40;60.90
16513;DHT22;8369;48.030;11.598;2022-07-30T15:35:38;25.50;61.00
16513;DHT22;8369;48.030;11.598;2022-07-30T15:38:04;25.60;60.70
16513;DHT22;8369;48.030;11.598;2022-07-30T15:40:30;25.70;60.40
16513;DHT22;8369;48.030;11.598;2022-07-30T15:42:56;25.70;59.90
16513;DHT22;8369;48.030;11.598;2022-07-30T15:45:25;25.70;60.40
16513;DHT22;8369;48.030;11.598;2022-07-30T15:47:51;25.60;58.80
16513;DHT22;8369;48.030;11.598;2022-07-30T15:50:16;25.60;59.80
16513;DHT22;8369;48.030;11.598;2022-07-30T15:52:43;25.60;59.80
16513;DHT22;8369;48.030;11.598;2022-07-30T15:55:09;25.60;59.10
16513;DHT22;8369;48.030;11.598;2022-07-30T15:57:35;25.60;59.20
16513;DHT22;8369;48.030;11.598;2022-07-30T16:00:04;25.50;57.90
16513;DHT22;8369;48.030;11.598;2022-07-30T16:02:31;25.40;59.10
16513;DHT22;8369;48.030;11.598;2022-07-30T16:04:58;25.40;59.90
16513;DHT22;8369;48.030;11.598;2022-07-30T16:07:24;25.50;59.10
16513;DHT22;8369;48.030;11.598;2022-07-30T16:09:51;25.30;59.70
16513;DHT22;8369;48.030;11.598;2022-07-30T16:12:20;25.30;59.80